Time;durP1;ratioP1;P1;durP2;ratioP2;P2;SDS_P1;SDS_P2;PMS_P1;PMS_P2;Temp;Humidity;BMP_temperature;BMP_pressure;BME280_temperature;BME280_humidity;BME280_pressure;Samples;Min_cycle;Max_cycle;Signal;HPM_P1;HPM_P2
2022/08/15 00:01:36;;;;;;;5.55;5.05;;;;;;;23.06;53.78;97120.97;5039641;28;20049;-89
2022/08/15 00:04:11;;;;;;;5.07;4.68;;;;;;;23.11;54.05;97128.88;5034042;28;20052;-86
2022/08/15 00:06:58;;;;;;;6.18;5.57;;;;;;;23.10;53.50;97124.63;5034742;28;20068;-86
2022/08/15 00:09:25;;;;;;;6.18;5.63;;;;;;;23.03;53.34;97110.91;5034242;28;20111;-88
2022/08/15 00:12:11;;;;;;;5.32;4.82;;;;;;;23.04;53.62;97112.47;5048853;28;20485;-88
2022/08/15 00:14:58;;;;;;;5.40;4.85;;;;;;;23.01;53.43;97110.41;5053791;28;20492;-89
2022/08/15 00:17:29;;;;;;;5.33;4.83;;;;;;;22.91;53.98;97091.91;5030364;28;20045;-85
2022/08/15 00:20:15;;;;;;;5.32;4.82;;;;;;;22.98;54.04;97100.31;5048990;28;20374;-87
2022/08/15 00:22:50;;;;;;;5.82;5.25;;;;;;;23.07;53.69;97106.50;5040231;28;20053;-89
2022/08/15 00:25:17;;;;;;;;;;;;;;;22.97;53.91;97109.44;5050437;28;20131;-88
2022/08/15 00:27:51;;;;;;;5.47;5.03;;;;;;;22.92;53.68;97098.84;5047216;28;19925;-88
2022/08/15 00:30:22;;;;;;;5.53;5.03;;;;;;;22.89;54.25;97099.44;5054292;28;20556;-87
2022/08/15 00:32:55;;;;;;;5.05;4.57;;;;;;;22.91;53.68;97100.75;5044243;28;20503;-88
2022/08/15 00:35:49;;;;;;;5.55;5.03;;;;;;;22.88;54.12;97111.25;5050797;28;20040;-87
2022/08/15 00:38:30;;;;;;;5.95;5.20;;;;;;;22.89;54.98;97099.44;5039399;28;20041;-87
2022/08/15 00:44:07;;;;;;;5.75;5.25;;;;;;;22.89;54.84;97100.25;5032170;28;20112;-88
2022/08/15 00:46:37;;;;;;;5.82;5.32;;;;;;;22.93;55.27;97105.78;5033135;28;20045;-88
2022/08/15 00:49:08;;;;;;;5.85;5.35;;;;;;;22.89;54.56;97097.56;5035788;28;20038;-86
2022/08/15 00:51:54;;;;;;;5.43;4.95;;;;;;;22.90;54.50;97101.81;5043965;28;20092;-86
2022/08/15 00:54:28;;;;;;;5.40;4.90;;;;;;;22.89;54.90;97107.47;5041599;28;20049;-87
2022/08/15 00:57:28;;;;;;;5.43;4.97;;;;;;;22.86;55.37;97094.69;5046891;28;20047;-86
2022/08/15 01:00:26;;;;;;;6.13;5.63;;;;;;;22.73;55.44;97090.16;5038504;28;20060;-86
2022/08/15 01:03:14;;;;;;;5.63;5.13;;;;;;;22.70;55.13;97092.38;5041348;28;20047;-85
2022/08/15 01:05:49;;;;;;;5.05;4.55;;;;;;;22.68;56.04;97094.56;5041945;28;20397;-86
2022/08/15 01:08:23;;;;;;;7.68;5.72;;;;;;;22.54;55.65;97088.44;5037509;28;20045;-87
2022/08/15 01:11:11;;;;;;;6.00;5.40;;;;;;;22.59;56.19;97099.03;5056156;28;20049;-86
2022/08/15 01:13:40;;;;;;;5.25;4.75;;;;;;;22.54;56.67;97099.13;5035558;28;20087;-87
2022/08/15 01:16:30;;;;;;;5.78;5.10;;;;;;;22.56;56.37;97086.28;5033293;28;20081;-85
2022/08/15 01:19:13;;;;;;;5.43;4.93;;;;;;;22.63;55.94;97102.69;5051673;28;20041;-86
2022/08/15 01:22:01;;;;;;;6.40;5.80;;;;;;;22.51;56.57;97086.38;5034839;28;20042;-88
2022/08/15 01:24:52;;;;;;;5.60;5.10;;;;;;;22.55;56.82;97092.72;5032585;28;20149;-87
2022/08/15 01:27:51;;;;;;;5.43;4.93;;;;;;;22.61;56.57;97098.72;5033003;28;20041;-87
2022/08/15 01:30:26;;;;;;;5.65;5.15;;;;;;;22.51;56.54;97091.72;5033724;28;20048;-86
2022/08/15 01:33:13;;;;;;;5.75;5.25;;;;;;;22.61;56.33;97102.19;5032634;28;20543;-87
2022/08/15 01:35:45;;;;;;;5.38;4.95;;;;;;;22.54;55.70;97109.03;5040877;28;20060;-83
2022/08/15 01:38:28;;;;;;;6.45;5.90;;;;;;;22.44;56.36;97107.38;5032515;28;20037;-84
2022/08/15 01:41:44;;;;;;;5.35;4.95;;;;;;;22.46;56.89;97099.84;5032668;28;20139;-84
2022/08/15 01:44:43;;;;;;;6.68;6.07;;;;;;;22.51;57.09;97097.06;5033114;28;20075;-83
2022/08/15 01:47:32;;;;;;;5.63;4.95;;;;;;;22.60;57.61;97108.63;5056248;28;20041;-83
2022/08/15 01:50:23;;;;;;;5.32;4.82;;;;;;;22.66;56.41;97090.59;5032447;28;20473;-85
2022/08/15 01:53:06;;;;;;;5.22;4.80;;;;;;;22.65;56.76;97076.44;5028091;28;20034;-84
2022/08/15 01:55:59;;;;;;;5.65;5.15;;;;;;;22.68;56.10;97089.22;5047954;28;20044;-84
2022/08/15 01:58:28;;;;;;;5.70;5.13;;;;;;;22.69;56.38;97084.66;5053353;28;20459;-85
2022/08/15 02:01:06;;;;;;;5.00;4.53;;;;;;;22.66;56.05;97096.72;5048631;28;20041;-85
2022/08/15 02:03:35;;;;;;;4.60;4.20;;;;;;;22.58;56.12;97100.13;5043541;28;20375;-83
2022/08/15 02:06:28;;;;;;;4.70;4.30;;;;;;;22.52;57.18;97089.84;5044668;28;20091;-86
2022/08/15 02:09:09;;;;;;;5.65;5.15;;;;;;;22.54;56.55;97103.69;5051317;28;20498;-83
2022/08/15 02:12:00;;;;;;;5.80;5.20;;;;;;;22.49;57.34;97093.91;5061806;28;20074;-84
2022/08/15 02:14:31;;;;;;;5.82;5.32;;;;;;;22.45;55.95;97095.59;5030866;28;20045;-84
2022/08/15 02:17:06;;;;;;;5.57;5.07;;;;;;;22.44;56.59;97084.13;5032542;28;20049;-84
2022/08/15 02:19:33;;;;;;;5.88;5.15;;;;;;;22.40;57.24;97077.00;5036638;28;20123;-85
2022/08/15 02:22:15;;;;;;;5.05;4.65;;;;;;;22.42;56.87;97080.94;5030035;28;20094;-86
2022/08/15 02:24:58;;;;;;;5.72;5.22;;;;;;;22.44;56.15;97072.66;5045600;28;20589;-86
2022/08/15 02:27:33;;;;;;;6.13;5.25;;;;;;;22.49;57.28;97082.41;5031274;28;20045;-85
2022/08/15 02:30:12;;;;;;;5.30;4.80;;;;;;;22.47;56.61;97076.59;5037116;28;20055;-85
2022/08/15 02:32:43;;;;;;;5.20;4.80;;;;;;;22.43;57.12;97071.88;5031665;28;20142;-86
2022/08/15 02:35:15;;;;;;;5.95;5.00;;;;;;;22.43;56.97;97073.72;5033034;28;20499;-85
2022/08/15 02:37:44;;;;;;;5.15;4.75;;;;;;;22.39;56.74;97070.09;5039974;28;20048;-86
2022/08/15 02:40:25;;;;;;;6.05;4.72;;;;;;;22.35;57.25;97061.09;5048050;28;20045;-87
2022/08/15 02:43:15;;;;;;;5.70;5.13;;;;;;;22.32;57.10;97072.38;5049115;28;20049;-85
2022/08/15 02:45:47;;;;;;;6.20;5.60;;;;;;;22.26;56.71;97060.22;5050034;28;20059;-86
2022/08/15 02:48:39;;;;;;;6.00;5.40;;;;;;;22.29;57.13;97065.75;5048336;28;20130;-84
2022/08/15 02:51:10;;;;;;;5.00;4.60;;;;;;;22.26;57.29;97077.03;5050475;28;20079;-86
2022/08/15 02:53:44;;;;;;;5.35;4.85;;;;;;;22.30;57.15;97074.53;5058948;28;20053;-86
2022/08/15 02:56:20;;;;;;;4.90;4.40;;;;;;;22.28;57.21;97074.06;5037754;28;20730;-86
2022/08/15 02:58:48;;;;;;;6.03;5.43;;;;;;;22.23;57.19;97076.84;5047141;28;20087;-85
2022/08/15 03:01:18;;;;;;;4.90;4.50;;;;;;;22.25;57.98;97069.31;5066717;28;20041;-84
2022/08/15 03:03:54;;;;;;;5.28;4.88;;;;;;;22.32;57.54;97069.72;5030765;28;20049;-84
2022/08/15 03:06:32;;;;;;;5.50;5.00;;;;;;;22.32;56.87;97069.72;5038145;28;20051;-83
2022/08/15 03:09:06;;;;;;;5.45;4.90;;;;;;;22.25;56.62;97069.31;5047091;28;20041;-84
2022/08/15 03:11:38;;;;;;;5.57;4.97;;;;;;;22.31;57.46;97076.13;5051825;28;20408;-83
2022/08/15 03:14:23;;;;;;;4.90;4.50;;;;;;;22.28;57.28;97058.03;5032221;28;20046;-83
2022/08/15 03:17:02;;;;;;;5.10;4.60;;;;;;;22.30;57.50;97061.19;5031072;28;20095;-84
2022/08/15 03:19:35;;;;;;;5.13;4.60;;;;;;;22.27;57.56;97057.25;5033273;28;20370;-87
2022/08/15 03:22:08;;;;;;;5.10;4.70;;;;;;;22.22;57.40;97054.69;5034944;28;20049;-85
2022/08/15 03:24:36;;;;;;;5.30;4.90;;;;;;;22.29;57.92;97072.97;5045442;28;20049;-85
2022/08/15 03:27:03;;;;;;;5.50;5.00;;;;;;;22.24;57.86;97062.38;5039737;28;20049;-84
2022/08/15 03:29:30;;;;;;;5.70;5.18;;;;;;;22.17;57.64;97052.91;5040575;28;20037;-85
2022/08/15 03:32:11;;;;;;;5.55;5.05;;;;;;;22.17;57.90;97058.25;5053389;28;20496;-84
2022/08/15 03:35:03;;;;;;;5.70;5.20;;;;;;;22.24;58.38;97057.84;5032606;28;20088;-84
2022/08/15 03:37:39;;;;;;;6.10;5.50;;;;;;;22.25;58.65;97067.47;5033166;28;20050;-85
2022/08/15 03:40:28;;;;;;;6.05;5.55;;;;;;;22.25;58.08;97066.63;5035147;28;20073;-86
2022/08/15 03:43:04;;;;;;;5.50;4.95;;;;;;;22.23;57.79;97071.50;5038583;28;20455;-86
2022/08/15 03:45:45;;;;;;;5.22;4.82;;;;;;;22.24;58.36;97067.72;5033867;28;20053;-86
2022/08/15 03:48:16;;;;;;;5.82;5.32;;;;;;;22.13;57.81;97062.63;5034031;28;20452;-84
2022/08/15 03:50:52;;;;;;;6.05;5.55;;;;;;;22.16;57.97;97064.69;5063307;28;20045;-85
2022/08/15 03:53:30;;;;;;;6.00;5.40;;;;;;;22.20;58.40;97072.13;5043970;28;20159;-88
2022/08/15 03:55:59;;;;;;;5.55;5.03;;;;;;;22.13;58.28;97067.97;5049065;28;20115;-88
2022/08/15 03:58:28;;;;;;;6.07;5.50;;;;;;;22.14;58.05;97071.44;5034629;28;20477;-89
2022/08/15 04:01:08;;;;;;;5.90;5.30;;;;;;;22.14;57.91;97074.88;5050320;28;20606;-85
2022/08/15 04:03:40;;;;;;;5.20;4.70;;;;;;;22.08;58.16;97070.72;5045442;28;20405;-86
2022/08/15 04:06:10;;;;;;;6.30;5.35;;;;;;;22.09;57.74;97076.84;5032275;28;20122;-84
2022/08/15 04:08:42;;;;;;;5.50;4.97;;;;;;;22.04;58.37;97068.94;5045641;28;20041;-84
2022/08/15 04:11:31;;;;;;;5.18;4.78;;;;;;;22.12;57.93;97082.38;5052436;28;20041;-85
2022/08/15 04:14:06;;;;;;;4.90;4.40;;;;;;;22.11;58.28;97078.13;5039092;28;20124;-85
2022/08/15 04:16:56;;;;;;;5.65;5.15;;;;;;;22.12;57.77;97082.38;5032027;28;20144;-84
2022/08/15 04:19:32;;;;;;;6.65;5.95;;;;;;;22.17;57.71;97092.19;5033885;28;20088;-85
2022/08/15 04:22:30;;;;;;;6.30;5.72;;;;;;;22.16;58.04;97096.72;5036361;28;20049;-82
2022/08/15 04:25:29;;;;;;;6.32;5.72;;;;;;;22.16;58.06;97102.06;5036884;28;20046;-84
2022/08/15 04:28:19;;;;;;;7.03;6.32;;;;;;;22.11;57.51;97096.03;5043822;28;20474;-86
2022/08/15 04:31:11;;;;;;;5.93;5.43;;;;;;;22.12;57.93;97108.28;5059163;28;20072;-84
2022/08/15 04:33:40;;;;;;;5.32;4.80;;;;;;;22.13;57.90;97108.03;5031641;28;20056;-86
2022/08/15 04:36:28;;;;;;;7.10;5.82;;;;;;;22.05;58.20;97103.31;5031575;28;20099;-83
2022/08/15 04:39:00;;;;;;;5.30;4.90;;;;;;;22.03;58.58;97102.84;5031895;28;20132;-86
2022/08/15 04:41:31;;;;;;;6.00;5.50;;;;;;;22.05;58.99;97098.00;5032817;28;20045;-86
2022/08/15 04:44:04;;;;;;;6.20;5.60;;;;;;;22.04;58.39;97100.97;5038613;28;20045;-85
2022/08/15 04:46:31;;;;;;;6.57;5.50;;;;;;;22.03;57.87;97110.06;5033393;28;20077;-85
2022/08/15 04:48:58;;;;;;;5.78;5.18;;;;;;;22.02;58.26;97108.50;5032716;28;20041;-84
2022/08/15 04:51:27;;;;;;;7.10;6.20;;;;;;;21.92;57.94;97114.81;5050314;28;20133;-84
2022/08/15 04:54:16;;;;;;;7.15;6.45;;;;;;;21.85;58.40;97107.19;5031406;28;20049;-87
2022/08/15 04:56:44;;;;;;;5.60;5.10;;;;;;;21.93;58.84;97111.03;5030792;28;20045;-85
2022/08/15 04:59:21;;;;;;;6.10;5.50;;;;;;;21.89;58.33;97115.38;5031117;28;20061;-87
2022/08/15 05:02:10;;;;;;;6.80;6.10;;;;;;;21.88;58.59;97113.81;5034024;28;20053;-87
2022/08/15 05:04:58;;;;;;;6.57;5.93;;;;;;;21.90;59.13;97114.31;5051372;28;20049;-86
2022/08/15 05:07:25;;;;;;;6.13;5.63;;;;;;;21.86;58.97;97102.66;5034175;28;20042;-88
2022/08/15 05:10:02;;;;;;;6.70;6.00;;;;;;;21.88;58.72;97103.91;5041033;28;20037;-88
2022/08/15 05:12:38;;;;;;;5.70;5.18;;;;;;;21.92;59.55;97101.47;5049455;28;20045;-85
2022/08/15 05:15:10;;;;;;;6.60;5.72;;;;;;;22.05;58.99;97103.31;5048444;28;20047;-86
2022/08/15 05:17:37;;;;;;;5.47;4.97;;;;;;;22.10;59.01;97103.25;5036389;28;20071;-87
2022/08/15 05:20:25;;;;;;;6.20;5.63;;;;;;;22.17;59.02;97100.97;5036916;28;20041;-87
2022/08/15 05:23:04;;;;;;;5.22;4.72;;;;;;;22.30;59.95;97109.28;5059839;28;20041;-87
2022/08/15 05:25:37;;;;;;;5.72;5.20;;;;;;;22.36;58.81;97108.06;5033121;28;20056;-83
2022/08/15 05:28:10;;;;;;;5.70;5.20;;;;;;;22.43;58.44;97108.44;5037599;28;20224;-84
2022/08/15 05:30:59;;;;;;;5.63;5.13;;;;;;;22.53;58.72;97118.94;5031600;28;20129;-86
2022/08/15 05:33:42;;;;;;;5.40;4.93;;;;;;;22.52;59.00;97111.22;5048550;28;20033;-84
2022/08/15 05:36:25;;;;;;;5.20;4.70;;;;;;;22.65;58.48;97121.88;5042032;28;20041;-85
2022/08/15 05:39:00;;;;;;;5.93;5.43;;;;;;;22.67;58.01;97127.72;5044175;28;20521;-86
2022/08/15 05:42:04;;;;;;;5.78;5.28;;;;;;;22.73;57.66;97130.25;5042545;28;20515;-85
2022/08/15 05:44:44;;;;;;;6.70;6.03;;;;;;;22.73;57.59;97138.28;5030327;28;20053;-86
2022/08/15 05:47:15;;;;;;;7.70;6.00;;;;;;;22.74;56.92;97139.88;5030275;28;20053;-87
2022/08/15 05:49:55;;;;;;;4.97;4.53;;;;;;;22.84;55.77;97132.41;5029286;28;20512;-84
2022/08/15 05:52:46;;;;;;;4.88;4.47;;;;;;;22.90;56.70;97125.09;5038316;28;20655;-87
2022/08/15 05:56:10;;;;;;;5.70;5.00;;;;;;;22.92;56.60;97125.59;5044648;28;20060;-85
2022/08/15 05:59:12;;;;;;;4.90;4.50;;;;;;;23.07;58.16;97140.47;5050672;28;20543;-85
2022/08/15 06:02:04;;;;;;;5.30;4.80;;;;;;;23.14;57.69;97146.97;5031865;28;20132;-83
2022/08/15 06:05:08;;;;;;;5.30;4.85;;;;;;;23.18;56.89;97149.84;5045640;28;20036;-85
2022/08/15 06:07:45;;;;;;;5.63;4.70;;;;;;;23.12;56.21;97132.34;5035247;28;20092;-83
2022/08/15 06:10:38;;;;;;;4.88;4.47;;;;;;;23.17;56.45;97133.00;5034981;28;20034;-85
2022/08/15 06:13:16;;;;;;;6.22;5.43;;;;;;;23.09;55.55;97141.78;5034674;28;20456;-86
2022/08/15 06:16:06;;;;;;;8.07;6.10;;;;;;;23.13;55.13;97137.38;5038740;28;20037;-85
2022/08/15 06:18:55;;;;;;;4.93;4.53;;;;;;;23.12;56.56;97130.47;5044586;28;20044;-85
2022/08/15 06:21:40;;;;;;;4.50;4.10;;;;;;;23.09;55.53;97125.72;5051247;28;20132;-81
2022/08/15 06:24:38;;;;;;;4.53;4.13;;;;;;;23.18;55.47;97150.63;5037490;28;20052;-84
2022/08/15 06:27:47;;;;;;;6.05;4.03;;;;;;;23.14;55.24;97144.31;5048812;28;20532;-84
2022/08/15 06:31:02;;;;;;;5.78;3.80;;;;;;;23.19;55.36;97149.53;5062526;28;20048;-82
2022/08/15 06:33:40;;;;;;;5.28;3.40;;;;;;;23.22;56.06;97146.28;5046761;28;20451;-86
2022/08/15 06:36:39;;;;;;;3.67;3.22;;;;;;;23.27;55.11;97157.91;5051519;28;20045;-84
2022/08/15 06:39:38;;;;;;;5.38;3.40;;;;;;;23.24;54.77;97157.44;5064698;28;20044;-85
2022/08/15 06:42:16;;;;;;;5.03;3.40;;;;;;;23.23;55.14;97153.19;5044544;28;20509;-82
2022/08/15 06:44:51;;;;;;;3.33;3.13;;;;;;;23.24;54.82;97149.41;5045396;28;20045;-82
2022/08/15 06:47:22;;;;;;;4.63;3.50;;;;;;;23.24;54.84;97143.28;5039432;28;20377;-81
2022/08/15 06:49:57;;;;;;;4.28;3.90;;;;;;;23.22;54.88;97151.63;5031930;28;20044;-86
2022/08/15 06:52:29;;;;;;;3.08;2.78;;;;;;;23.24;55.20;97149.41;5028338;28;20041;-84
2022/08/15 06:54:59;;;;;;;3.50;3.15;;;;;;;23.21;55.12;97152.72;5035552;28;20055;-86
2022/08/15 06:57:37;;;;;;;4.03;3.72;;;;;;;23.24;54.99;97154.78;5035131;28;20045;-85
2022/08/15 07:00:20;;;;;;;3.97;3.60;;;;;;;23.25;55.30;97166.25;5051242;28;20056;-83
2022/08/15 07:03:50;;;;;;;4.43;3.30;;;;;;;23.17;55.12;97170.47;5036692;28;20464;-86
2022/08/15 07:06:29;;;;;;;4.15;3.63;;;;;;;23.08;55.57;97172.25;5040753;28;20055;-86
2022/08/15 07:09:46;;;;;;;3.72;3.38;;;;;;;23.19;56.09;97188.88;5035174;28;20551;-87
2022/08/15 07:12:47;;;;;;;3.78;3.28;;;;;;;23.05;55.79;97183.56;5029335;28;20143;-84
2022/08/15 07:15:57;;;;;;;4.15;3.35;;;;;;;23.05;55.99;97188.13;5050637;28;20489;-83
2022/08/15 07:18:36;;;;;;;5.53;3.88;;;;;;;22.99;56.11;97187.47;5020669;28;20386;-85
2022/08/15 07:21:19;;;;;;;3.88;3.25;;;;;;;23.01;56.31;97181.81;5038460;28;20033;-84
2022/08/15 07:24:17;;;;;;;5.05;3.85;;;;;;;23.01;56.29;97179.13;5048503;28;20045;-86
2022/08/15 07:27:04;;;;;;;3.05;2.78;;;;;;;22.97;56.79;97186.97;5038290;28;20041;-83
2022/08/15 07:29:47;;;;;;;4.35;3.22;;;;;;;22.95;56.63;97183.78;5044296;28;20543;-84
2022/08/15 07:32:44;;;;;;;4.45;3.13;;;;;;;22.92;57.04;97185.19;5050165;28;20057;-82
2022/08/15 07:35:12;;;;;;;3.53;2.80;;;;;;;22.98;56.94;97172.50;5070997;28;20040;-81
2022/08/15 07:38:06;;;;;;;4.05;3.00;;;;;;;22.98;57.21;97172.50;5048710;28;20052;-81
2022/08/15 07:41:12;;;;;;;5.10;3.50;;;;;;;22.99;57.50;97178.66;5042167;28;20405;-83
2022/08/15 07:43:39;;;;;;;4.82;2.67;;;;;;;23.01;57.34;97181.81;5040171;28;20041;-84
2022/08/15 07:46:14;;;;;;;5.97;3.47;;;;;;;23.02;57.63;97178.81;5053978;28;20071;-87
2022/08/15 07:49:18;;;;;;;4.80;3.20;;;;;;;23.07;57.75;97185.94;5054065;28;20461;-83
2022/08/15 07:52:21;;;;;;;5.72;3.45;;;;;;;22.99;57.85;97176.75;5050731;28;20049;-88
2022/08/15 07:55:24;;;;;;;3.20;2.90;;;;;;;22.94;57.90;97175.00;5033303;28;20049;-84
2022/08/15 07:58:19;;;;;;;4.15;3.35;;;;;;;22.89;58.27;97177.78;5034770;28;20132;-82
2022/08/15 08:01:23;;;;;;;4.05;3.60;;;;;;;22.86;58.53;97181.03;5039702;28;20048;-82
2022/08/15 08:04:11;;;;;;;5.32;3.13;;;;;;;22.89;58.54;97179.66;5035986;28;20447;-81
2022/08/15 08:07:30;;;;;;;3.35;2.97;;;;;;;22.97;58.73;97176.28;5034116;28;20103;-83
2022/08/15 08:10:11;;;;;;;3.08;2.75;;;;;;;23.17;59.85;97191.84;5042656;28;20125;-84
2022/08/15 08:13:15;;;;;;;3.20;2.78;;;;;;;23.28;58.73;97180.94;5040116;28;20049;-83
2022/08/15 08:16:21;;;;;;;3.03;2.60;;;;;;;23.43;57.96;97175.19;5041316;28;20104;-86
2022/08/15 08:19:12;;;;;;;2.75;2.20;;;;;;;23.56;57.47;97182.34;5033073;28;20038;-83
2022/08/15 08:22:20;;;;;;;2.95;2.67;;;;;;;23.57;56.95;97188.50;5046020;28;20076;-87
2022/08/15 08:25:38;;;;;;;3.20;2.90;;;;;;;23.65;56.39;97185.91;5037160;28;20048;-88
2022/08/15 08:28:46;;;;;;;3.25;2.40;;;;;;;23.81;57.00;97198.91;5028722;28;20140;-84
2022/08/15 08:31:36;;;;;;;2.67;2.47;;;;;;;23.82;56.93;97200.50;5051547;28;20048;-87
2022/08/15 08:34:18;;;;;;;3.15;2.70;;;;;;;23.91;56.55;97206.69;5035199;28;20670;-83
2022/08/15 08:37:29;;;;;;;2.65;2.45;;;;;;;23.92;54.87;97205.59;5056093;28;20159;-84
2022/08/15 08:43:40;;;;;;;4.20;3.00;;;;;;;24.08;55.11;97200.63;5053893;28;20063;-83
2022/08/15 08:46:32;;;;;;;2.90;2.60;;;;;;;24.19;55.32;97210.75;5032143;28;20115;-84
2022/08/15 08:49:30;;;;;;;4.53;2.55;;;;;;;24.33;55.82;97204.50;5023305;28;20071;-86
2022/08/15 08:52:48;;;;;;;3.55;2.38;;;;;;;24.45;54.61;97202.06;5036084;28;20535;-88
2022/08/15 08:55:33;;;;;;;4.35;2.80;;;;;;;24.64;54.45;97204.47;5032149;28;20053;-85
2022/08/15 08:58:20;;;;;;;3.00;2.72;;;;;;;24.70;53.47;97206.69;5032824;28;20076;-85
2022/08/15 09:01:14;;;;;;;4.10;2.47;;;;;;;25.10;52.68;97195.88;5033566;28;20123;-87
2022/08/15 09:03:52;;;;;;;4.03;2.75;;;;;;;25.59;52.29;97208.00;5041452;28;20148;-85
2022/08/15 09:06:25;;;;;;;3.38;2.10;;;;;;;25.88;51.99;97193.91;5041345;28;20041;-86
2022/08/15 09:09:07;;;;;;;2.72;2.45;;;;;;;26.25;54.27;97190.75;5031498;28;20620;-89
2022/08/15 09:12:01;;;;;;;3.38;2.25;;;;;;;26.60;49.80;97191.41;5040070;28;20626;-85
2022/08/15 09:14:40;;;;;;;3.47;2.70;;;;;;;26.53;47.45;97188.44;5044379;28;20063;-82
2022/08/15 09:17:33;;;;;;;2.78;2.22;;;;;;;26.63;47.28;97190.78;5032529;28;20045;-85
2022/08/15 09:20:12;;;;;;;3.78;3.10;;;;;;;26.74;48.14;97189.25;5033417;28;20037;-86
2022/08/15 09:22:48;;;;;;;3.15;2.85;;;;;;;26.77;46.76;97175.16;5033093;28;20444;-84
2022/08/15 09:25:21;;;;;;;3.47;3.17;;;;;;;26.75;46.75;97177.41;5032758;28;20037;-86
2022/08/15 09:28:14;;;;;;;3.05;2.70;;;;;;;26.37;46.64;97180.91;5047306;28;20053;-83
2022/08/15 09:31:04;;;;;;;2.90;2.60;;;;;;;26.20;47.95;97178.28;5048594;28;20400;-87
2022/08/15 09:33:40;;;;;;;2.67;2.47;;;;;;;26.14;47.37;97182.28;5031387;28;20292;-85
2022/08/15 09:36:43;;;;;;;4.10;2.95;;;;;;;25.96;48.47;97183.44;5032893;28;20505;-84
2022/08/15 09:39:50;;;;;;;2.95;2.75;;;;;;;25.91;48.43;97192.50;5035119;28;20045;-87
2022/08/15 09:42:56;;;;;;;3.03;2.70;;;;;;;26.23;49.25;97193.78;5004115;28;20115;-85
2022/08/15 09:45:51;;;;;;;2.80;2.50;;;;;;;26.62;50.82;97186.47;5031476;28;20087;-86
2022/08/15 09:49:10;;;;;;;3.10;2.80;;;;;;;26.59;47.14;97190.63;5041554;28;20102;-85
2022/08/15 09:52:37;;;;;;;3.05;2.75;;;;;;;26.49;47.72;97190.19;5049051;28;20120;-86
2022/08/15 09:55:46;;;;;;;3.75;2.97;;;;;;;26.52;47.80;97173.44;5044737;28;20056;-85
2022/08/15 09:58:31;;;;;;;3.88;2.92;;;;;;;26.63;47.41;97190.78;5036994;28;20558;-84
2022/08/15 10:01:12;;;;;;;3.58;3.28;;;;;;;26.50;47.06;97170.25;5035528;28;20130;-86
2022/08/15 10:03:44;;;;;;;6.80;3.58;;;;;;;26.60;47.00;97180.66;5047173;28;20127;-85
2022/08/15 10:06:27;;;;;;;4.03;3.00;;;;;;;26.50;46.41;97181.81;5051887;28;20452;-86
2022/08/15 10:09:35;;;;;;;3.30;3.00;;;;;;;26.56;46.88;97187.78;5058427;28;20400;-86
2022/08/15 10:12:09;;;;;;;4.57;3.10;;;;;;;26.60;46.19;97177.97;5032008;28;20124;-82
2022/08/15 10:14:55;;;;;;;2.67;2.47;;;;;;;26.59;46.66;97168.31;5036235;28;20057;-87
2022/08/15 10:17:35;;;;;;;2.30;2.20;;;;;;;26.69;47.76;97176.03;5046818;28;20068;-86
2022/08/15 10:20:29;;;;;;;2.92;2.60;;;;;;;26.64;46.51;97176.22;5030752;28;20099;-88
2022/08/15 10:23:00;;;;;;;3.22;2.55;;;;;;;27.01;48.15;97165.66;5041459;28;20080;-86
2022/08/15 10:25:35;;;;;;;3.75;3.33;;;;;;;27.27;44.84;97174.31;5031836;28;20490;-88
2022/08/15 10:28:11;;;;;;;3.75;2.35;;;;;;;27.53;45.22;97167.91;5031044;28;20037;-86
2022/08/15 10:31:00;;;;;;;4.10;3.08;;;;;;;27.44;43.70;97168.78;5037305;28;20468;-87
2022/08/15 10:33:34;;;;;;;2.83;2.63;;;;;;;27.43;45.31;97167.22;5030751;28;20041;-90
2022/08/15 10:36:13;;;;;;;2.95;2.65;;;;;;;27.41;42.19;97166.75;5038254;28;20049;-86
2022/08/15 10:39:46;;;;;;;3.13;2.53;;;;;;;27.20;41.90;97171.38;5049890;28;20045;-83
2022/08/15 10:43:11;;;;;;;3.80;2.90;;;;;;;27.04;42.10;97167.69;5042433;28;20057;-85
2022/08/15 10:46:17;;;;;;;2.97;2.67;;;;;;;26.91;42.00;97170.31;5058502;28;20049;-84
2022/08/15 10:49:29;;;;;;;2.70;2.50;;;;;;;26.79;42.74;97164.06;5050381;28;20408;-83
2022/08/15 10:52:07;;;;;;;3.03;2.72;;;;;;;26.78;42.32;97174.03;5043089;28;20099;-86
2022/08/15 10:54:47;;;;;;;3.08;2.50;;;;;;;26.87;43.51;97164.03;5036152;28;20412;-86
2022/08/15 10:57:22;;;;;;;2.90;2.40;;;;;;;26.90;41.40;97163.34;5049984;28;20072;-84
2022/08/15 10:59:54;;;;;;;3.00;2.42;;;;;;;27.00;42.56;97162.19;5037936;28;20041;-88
2022/08/15 11:02:45;;;;;;;3.20;2.80;;;;;;;26.99;42.32;97167.88;5038654;28;20042;-84
2022/08/15 11:05:33;;;;;;;2.90;2.60;;;;;;;26.82;42.05;97172.28;5039424;28;20053;-84
2022/08/15 11:08:01;;;;;;;3.00;2.70;;;;;;;26.82;42.45;97160.75;5048620;28;20087;-84
2022/08/15 11:10:32;;;;;;;3.05;2.70;;;;;;;26.86;42.83;97162.44;5051973;28;20270;-84
2022/08/15 11:13:12;;;;;;;3.17;2.88;;;;;;;26.79;42.66;97161.38;5051792;28;20087;-86
2022/08/15 11:15:56;;;;;;;3.33;3.03;;;;;;;26.93;43.07;97162.72;5051738;28;20037;-89
2022/08/15 11:18:34;;;;;;;3.28;3.08;;;;;;;27.05;42.70;97163.88;5067311;28;20117;-90
2022/08/15 11:21:18;;;;;;;3.42;3.22;;;;;;;27.24;42.00;97164.22;5049712;28;20041;-88
2022/08/15 11:23:58;;;;;;;3.53;3.22;;;;;;;27.72;42.62;97154.75;5031323;28;20428;-87
2022/08/15 11:26:33;;;;;;;3.13;2.92;;;;;;;27.74;40.59;97165.97;5043451;28;20037;-85
2022/08/15 11:29:24;;;;;;;3.70;3.40;;;;;;;27.55;41.19;97155.69;5052206;28;20566;-88
2022/08/15 11:31:57;;;;;;;4.07;3.45;;;;;;;27.30;42.24;97170.97;5043834;28;20041;-88
2022/08/15 11:34:46;;;;;;;3.97;3.67;;;;;;;27.48;42.21;97156.22;5031221;28;20060;-90
2022/08/15 11:37:21;;;;;;;3.22;2.92;;;;;;;27.66;43.87;97154.16;5014114;28;20052;-84
2022/08/15 11:40:17;;;;;;;3.83;3.50;;;;;;;27.60;41.70;97152.78;5047576;28;20096;-84
2022/08/15 11:42:46;;;;;;;3.90;2.80;;;;;;;27.83;41.99;97145.13;5067096;28;20072;-86
2022/08/15 11:45:35;;;;;;;4.25;3.70;;;;;;;27.69;40.77;97153.50;5036320;28;20041;-87
2022/08/15 11:48:36;;;;;;;5.78;3.47;;;;;;;27.64;41.63;97144.81;5035299;28;20484;-88
2022/08/15 11:51:08;;;;;;;3.50;3.20;;;;;;;27.56;41.45;97143.78;5033968;28;20077;-86
2022/08/15 11:53:44;;;;;;;3.70;3.40;;;;;;;27.33;40.87;97151.47;5038174;28;20049;-84
2022/08/15 11:56:23;;;;;;;3.55;3.28;;;;;;;27.26;41.45;97143.13;5035054;28;20051;-85
2022/08/15 11:59:24;;;;;;;4.80;2.80;;;;;;;27.28;41.64;97148.97;5036123;28;20492;-86
2022/08/15 12:02:05;;;;;;;3.75;3.08;;;;;;;27.21;41.14;97154.09;5054560;28;20040;-87
2022/08/15 12:04:35;;;;;;;4.40;3.08;;;;;;;27.19;41.54;97148.28;5044898;28;20075;-89
2022/08/15 12:07:30;;;;;;;5.35;3.40;;;;;;;27.48;41.62;97145.47;5019846;28;20045;-86
2022/08/15 12:10:06;;;;;;;4.45;3.17;;;;;;;27.49;40.40;97151.63;5045008;28;20443;-88
2022/08/15 12:12:53;;;;;;;4.45;3.40;;;;;;;27.41;39.99;97145.22;5067900;28;20072;-85
2022/08/15 12:15:30;;;;;;;5.53;3.30;;;;;;;27.42;40.44;97154.09;5045065;28;20041;-87
2022/08/15 12:18:32;;;;;;;4.40;3.30;;;;;;;27.36;40.64;97158.88;5037881;28;20431;-85
2022/08/15 12:21:17;;;;;;;2.85;2.65;;;;;;;27.32;40.62;97152.59;5047007;28;20045;-84
2022/08/15 12:23:57;;;;;;;4.00;2.80;;;;;;;27.40;41.35;97156.31;5054455;28;20053;-85
2022/08/15 12:26:28;;;;;;;3.08;2.78;;;;;;;27.41;40.88;97136.38;5064067;28;20405;-84
2022/08/15 12:29:15;;;;;;;3.70;2.85;;;;;;;27.47;39.93;97151.97;5034775;28;20052;-84
2022/08/15 12:31:47;;;;;;;2.65;2.45;;;;;;;27.34;40.50;97136.88;5053978;28;20045;-83
2022/08/15 12:34:27;;;;;;;2.80;2.60;;;;;;;27.26;40.14;97137.75;5052670;28;20090;-88
2022/08/15 12:37:04;;;;;;;3.42;2.42;;;;;;;27.24;39.92;97134.63;5050050;28;20049;-87
2022/08/15 12:39:44;;;;;;;4.07;2.80;;;;;;;27.26;40.46;97120.81;5033089;28;20042;-87
2022/08/15 12:42:21;;;;;;;3.25;2.38;;;;;;;27.41;40.07;97139.84;5054145;28;20405;-86
2022/08/15 12:45:16;;;;;;;2.17;2.05;;;;;;;27.74;38.84;97123.66;5053244;28;20047;-86
2022/08/15 12:47:44;;;;;;;3.75;2.13;;;;;;;28.22;39.28;97124.03;5043770;28;20045;-86
2022/08/15 12:50:32;;;;;;;2.95;1.80;;;;;;;28.47;37.73;97119.41;5032174;28;20049;-86
2022/08/15 12:53:00;;;;;;;2.75;2.55;;;;;;;28.24;36.71;97119.06;5036600;28;20462;-86
2022/08/15 12:55:40;;;;;;;2.30;2.10;;;;;;;27.85;37.08;97118.63;5040992;28;20086;-84
2022/08/15 12:58:09;;;;;;;3.30;2.50;;;;;;;27.80;38.13;97115.38;5035535;28;20091;-87
2022/08/15 13:00:47;;;;;;;2.20;2.00;;;;;;;28.15;37.79;97118.41;5017144;28;20075;-89